Time;durP1;ratioP1;P1;durP2;ratioP2;P2;SDS_P1;SDS_P2;PMS_P1;PMS_P2;Temp;Humidity;BMP_temperature;BMP_pressure;BME280_temperature;BME280_humidity;BME280_pressure;Samples;Min_cycle;Max_cycle;Signal;HPM_P1;HPM_P2
2023/02/08 00:00:38;;;;;;;22.85;9.73;;;;;;;-6.59;66.66;95387.22;5105715;28;20063;-86
2023/02/08 00:03:03;;;;;;;20.55;8.45;;;;;;;-6.62;66.35;95397.91;5104617;28;20032;-87
2023/02/08 00:05:29;;;;;;;21.70;8.88;;;;;;;-6.62;66.30;95389.34;5105798;28;20019;-86
2023/02/08 00:07:54;;;;;;;22.10;8.77;;;;;;;-6.57;66.13;95402.59;5105941;28;20023;-86
2023/02/08 00:10:20;;;;;;;17.65;9.15;;;;;;;-6.59;66.41;95399.34;5105705;28;20020;-87
2023/02/08 00:12:45;;;;;;;11.63;5.78;;;;;;;-6.61;65.86;95386.56;5106137;28;20134;-86
2023/02/08 00:15:11;;;;;;;17.95;9.60;;;;;;;-6.69;66.10;95400.38;5105797;28;20027;-87
2023/02/08 00:17:36;;;;;;;18.30;8.70;;;;;;;-6.64;66.42;95409.44;5105989;28;20069;-87
2023/02/08 00:20:03;;;;;;;21.85;8.63;;;;;;;-6.62;66.67;95410.88;5104515;28;20057;-86
2023/02/08 00:22:28;;;;;;;18.58;9.05;;;;;;;-6.67;65.94;95403.59;5104181;28;20059;-86
2023/02/08 00:24:54;;;;;;;17.20;7.10;;;;;;;-6.67;66.07;95408.81;5105175;28;20024;-87
2023/02/08 00:27:19;;;;;;;17.30;8.25;;;;;;;-6.68;65.95;95407.16;5105054;28;20016;-87
2023/02/08 00:29:45;;;;;;;21.13;8.05;;;;;;;-6.69;66.12;95415.94;5105136;28;20016;-86
2023/02/08 00:32:11;;;;;;;21.48;9.02;;;;;;;-6.62;66.05;95410.88;5105281;28;20065;-89
2023/02/08 00:34:37;;;;;;;21.35;7.75;;;;;;;-6.61;65.76;95406.50;5105636;28;20015;-89
2023/02/08 00:37:03;;;;;;;16.25;7.63;;;;;;;-6.61;66.02;95411.69;5105561;28;20061;-89
2023/02/08 00:39:28;;;;;;;26.80;9.57;;;;;;;-6.67;66.39;95419.16;5105551;28;20318;-89
2023/02/08 00:41:54;;;;;;;18.33;8.00;;;;;;;-6.61;65.63;95422.06;5105182;28;20318;-87
2023/02/08 00:44:19;;;;;;;22.52;8.75;;;;;;;-6.58;65.51;95427.72;5104171;28;20054;-85
2023/02/08 00:46:45;;;;;;;19.67;8.60;;;;;;;-6.54;66.09;95434.19;5104717;28;20389;-85
2023/02/08 00:49:10;;;;;;;20.30;9.02;;;;;;;-6.49;65.80;95441.50;5104515;28;20314;-85
2023/02/08 00:51:36;;;;;;;21.35;8.35;;;;;;;-6.50;65.65;95435.47;5103651;28;20027;-85
2023/02/08 00:54:01;;;;;;;23.48;8.80;;;;;;;-6.48;65.54;95437.91;5104264;28;20095;-85
2023/02/08 00:56:27;;;;;;;20.98;7.50;;;;;;;-6.41;65.62;95443.22;5105093;28;20249;-92
2023/02/08 00:58:52;;;;;;;24.33;9.32;;;;;;;-6.42;65.78;95437.22;5105331;28;20020;-91
2023/02/08 01:01:18;;;;;;;20.15;8.35;;;;;;;-6.42;65.74;95439.03;5104181;28;20313;-92
2023/02/08 01:03:43;;;;;;;23.52;9.50;;;;;;;-6.46;65.93;95441.94;5104268;28;20065;-88
2023/02/08 01:06:13;;;;;;;18.17;8.05;;;;;;;-6.47;65.72;95429.97;5105410;28;20095;-89
2023/02/08 01:08:39;;;;;;;21.83;9.32;;;;;;;-6.41;66.06;95444.06;5105198;28;20016;-89
2023/02/08 01:11:09;;;;;;;17.58;8.77;;;;;;;-6.32;66.44;95447.41;5104212;28;20371;-91
2023/02/08 01:13:36;;;;;;;28.77;9.35;;;;;;;-6.34;66.14;95444.97;5105212;28;20054;-90
2023/02/08 01:16:12;;;;;;;24.13;9.23;;;;;;;-6.31;66.14;95446.41;5104767;28;20218;-88
2023/02/08 01:18:40;;;;;;;19.80;8.65;;;;;;;-6.34;66.65;95450.16;5104593;28;20031;-87
2023/02/08 01:21:07;;;;;;;20.90;8.55;;;;;;;-6.35;66.64;95440.78;5105779;28;20023;-92
2023/02/08 01:23:33;;;;;;;22.30;9.63;;;;;;;-6.42;66.79;95447.59;5106902;28;20024;-91
2023/02/08 01:25:59;;;;;;;25.58;10.60;;;;;;;-6.43;67.49;95440.81;5106918;28;20329;-92
2023/02/08 01:28:24;;;;;;;24.55;8.68;;;;;;;-6.43;67.71;95440.81;5111215;28;20036;-90
2023/02/08 01:30:50;;;;;;;22.77;10.45;;;;;;;-6.43;67.53;95433.03;5112474;28;20050;-92
2023/02/08 01:33:15;;;;;;;21.33;9.60;;;;;;;-6.47;67.74;95435.16;5107418;28;20054;-88
2023/02/08 01:35:40;;;;;;;20.17;9.40;;;;;;;-6.47;67.39;95429.97;5105341;28;20028;-90
2023/02/08 01:38:06;;;;;;;20.63;9.32;;;;;;;-6.51;67.07;95433.06;5109369;28;20028;-90
2023/02/08 01:40:31;;;;;;;23.35;9.77;;;;;;;-6.41;66.72;95441.47;5105550;28;20019;-89
2023/02/08 01:42:57;;;;;;;23.70;9.50;;;;;;;-6.41;66.89;95431.06;5104908;28;20031;-89
2023/02/08 01:45:29;;;;;;;16.60;8.68;;;;;;;-6.46;66.54;95436.75;5103688;28;20245;-88
2023/02/08 01:48:02;;;;;;;20.48;9.35;;;;;;;-6.42;67.35;95434.63;5103739;28;20047;-87
2023/02/08 01:50:33;;;;;;;26.58;11.10;;;;;;;-6.38;67.07;95442.91;5103990;28;20028;-88
2023/02/08 01:52:59;;;;;;;23.25;9.70;;;;;;;-6.46;67.14;95441.13;5103590;28;20059;-87
2023/02/08 01:55:28;;;;;;;23.42;9.63;;;;;;;-6.39;67.77;95439.50;5103637;28;20031;-87
2023/02/08 01:57:58;;;;;;;22.38;9.45;;;;;;;-6.36;67.24;95440.94;5102893;28;20024;-89
2023/02/08 02:00:24;;;;;;;25.83;9.73;;;;;;;-6.43;66.92;95446.00;5104429;28;20032;-89
2023/02/08 02:02:52;;;;;;;26.52;10.32;;;;;;;-6.40;67.19;95452.63;5104480;28;20024;-89
2023/02/08 02:05:25;;;;;;;23.45;10.13;;;;;;;-6.35;67.01;95452.91;5104542;28;20024;-89
2023/02/08 02:07:52;;;;;;;27.95;9.38;;;;;;;-6.41;67.46;95449.25;5104137;28;20198;-89
2023/02/08 02:10:24;;;;;;;23.02;9.50;;;;;;;-6.41;67.72;95449.25;5102847;28;20341;-89
2023/02/08 02:12:50;;;;;;;23.52;10.80;;;;;;;-6.38;67.72;95448.88;5104089;28;20023;-89
2023/02/08 02:15:16;;;;;;;25.73;9.98;;;;;;;-6.29;67.56;95458.28;5104304;28;20024;-90
2023/02/08 02:17:41;;;;;;;23.30;10.07;;;;;;;-6.28;67.29;95457.28;5103009;28;20379;-89
2023/02/08 02:20:10;;;;;;;22.02;10.18;;;;;;;-6.34;67.22;95465.72;5103754;28;20222;-89
2023/02/08 02:23:12;;;;;;;26.40;10.38;;;;;;;-6.35;67.52;95471.91;5103867;28;20032;-88
2023/02/08 02:25:46;;;;;;;;;;;;;;;-6.32;67.75;95471.56;5104850;28;20020;-91
2023/02/08 02:28:34;;;;;;;24.40;9.48;;;;;;;-6.41;68.51;95471.75;5104594;28;19961;-92
2023/02/08 02:31:18;;;;;;;24.45;9.77;;;;;;;-6.42;68.78;95477.94;5104465;28;20099;-93
2023/02/08 02:34:18;;;;;;;20.38;9.98;;;;;;;-6.47;69.86;95481.84;5104527;28;20055;-91
2023/02/08 02:37:01;;;;;;;27.10;10.85;;;;;;;-6.46;69.97;95485.25;5104369;28;20125;-92
2023/02/08 02:39:48;;;;;;;24.77;8.98;;;;;;;-6.48;70.22;95492.38;5103776;28;20019;-86
2023/02/08 02:45:30;;;;;;;28.17;11.57;;;;;;;-6.46;70.29;95483.44;5102894;28;20110;-89
2023/02/08 02:48:09;;;;;;;23.50;10.95;;;;;;;-6.47;70.59;95484.44;5101828;28;20051;-86
2023/02/08 02:50:53;;;;;;;24.35;9.75;;;;;;;-6.45;70.76;95486.88;5102843;28;20095;-86
2023/02/08 02:53:56;;;;;;;30.30;11.10;;;;;;;-6.43;70.75;95487.53;5103024;28;20083;-87
2023/02/08 02:56:28;;;;;;;25.65;10.80;;;;;;;-6.47;71.23;95492.22;5102590;28;20024;-85
2023/02/08 02:58:57;;;;;;;28.15;11.45;;;;;;;-6.41;71.03;95489.91;5102991;28;20225;-87
2023/02/08 03:01:28;;;;;;;27.23;11.00;;;;;;;-6.45;71.33;95486.88;5102852;28;20020;-87
2023/02/08 03:03:55;;;;;;;26.13;11.55;;;;;;;-6.46;71.36;95499.00;5102882;28;20020;-86
2023/02/08 03:06:56;;;;;;;26.10;10.82;;;;;;;-6.44;71.87;95485.09;5102660;28;20045;-85
2023/02/08 03:09:48;;;;;;;22.42;10.63;;;;;;;-6.35;72.11;95495.28;5106578;28;20031;-84
2023/02/08 03:12:36;;;;;;;26.02;12.05;;;;;;;-6.31;72.07;95488.78;5106581;28;20038;-84
2023/02/08 03:15:02;;;;;;;27.45;11.98;;;;;;;-6.31;71.92;95488.78;5087014;28;20070;-87
2023/02/08 03:17:36;;;;;;;28.27;12.43;;;;;;;-6.31;71.95;95493.13;5105238;28;20028;-87
2023/02/08 03:20:09;;;;;;;30.60;11.60;;;;;;;-6.37;72.25;95496.41;5106536;28;20369;-88
2023/02/08 03:23:06;;;;;;;34.10;11.27;;;;;;;-6.33;72.65;95497.69;5106277;28;20031;-85
2023/02/08 03:25:35;;;;;;;28.00;11.98;;;;;;;-6.42;72.68;95486.53;5106233;28;20019;-85
2023/02/08 03:28:08;;;;;;;26.70;11.50;;;;;;;-6.38;72.51;95484.41;5106228;28;20027;-88
2023/02/08 03:30:51;;;;;;;28.05;12.63;;;;;;;-6.30;72.60;95480.00;5106328;28;20024;-86
2023/02/08 03:33:22;;;;;;;23.23;11.38;;;;;;;-6.38;72.00;95474.84;5106066;28;20016;-85
2023/02/08 03:36:13;;;;;;;27.95;12.02;;;;;;;-6.38;72.17;95472.25;5105930;28;20095;-88
2023/02/08 03:38:42;;;;;;;30.33;13.10;;;;;;;-6.34;71.77;95480.50;5107105;28;20031;-88
2023/02/08 03:41:13;;;;;;;28.05;12.25;;;;;;;-6.40;71.69;95486.38;5105518;28;20028;-88
2023/02/08 03:43:55;;;;;;;29.67;13.30;;;;;;;-6.41;71.74;95475.19;5105385;28;20050;-88
2023/02/08 03:46:27;;;;;;;31.25;11.82;;;;;;;-6.38;71.67;95485.22;5105857;28;20043;-88
2023/02/08 03:49:06;;;;;;;31.23;12.68;;;;;;;-6.49;72.10;95488.19;5106234;28;20059;-88
2023/02/08 03:51:34;;;;;;;30.60;12.40;;;;;;;-6.51;72.15;95484.94;5106133;28;20051;-88
2023/02/08 03:54:03;;;;;;;30.70;12.23;;;;;;;-6.52;72.38;95488.50;5104774;28;20028;-87
2023/02/08 03:56:43;;;;;;;37.67;14.32;;;;;;;-6.55;72.45;95488.84;5104897;28;20024;-88
2023/02/08 03:59:16;;;;;;;26.55;11.27;;;;;;;-6.56;72.00;95484.63;5106087;28;20031;-88
2023/02/08 04:01:46;;;;;;;31.75;14.10;;;;;;;-6.63;72.12;95492.28;5106034;28;20020;-87
2023/02/08 04:04:17;;;;;;;26.92;12.05;;;;;;;-6.61;71.76;95490.31;5106054;28;20031;-88
2023/02/08 04:06:43;;;;;;;29.15;12.20;;;;;;;-6.60;71.44;95491.13;5106063;28;20091;-88
2023/02/08 04:09:08;;;;;;;30.42;12.63;;;;;;;-6.67;71.45;95496.97;5105951;28;20085;-88
2023/02/08 04:11:34;;;;;;;28.40;11.98;;;;;;;-6.61;71.37;95503.28;5105530;28;20019;-88
2023/02/08 04:13:59;;;;;;;33.47;12.98;;;;;;;-6.67;71.67;95501.38;5105778;28;20251;-88
2023/02/08 04:16:24;;;;;;;32.80;14.18;;;;;;;-6.59;71.81;95505.69;5105896;28;20075;-87
2023/02/08 04:18:50;;;;;;;35.75;14.38;;;;;;;-6.60;71.42;95515.28;5104779;28;20363;-89
2023/02/08 04:21:16;;;;;;;35.58;14.02;;;;;;;-6.59;71.68;95513.47;5105265;28;20020;-86
2023/02/08 04:23:41;;;;;;;33.38;12.50;;;;;;;-6.60;71.45;95511.88;5104971;28;20042;-84
2023/02/08 04:26:07;;;;;;;33.50;13.40;;;;;;;-6.69;72.22;95514.50;5105213;28;20203;-85
2023/02/08 04:28:33;;;;;;;34.60;14.02;;;;;;;-6.67;72.39;95514.31;5105122;28;20195;-85
2023/02/08 04:30:59;;;;;;;27.88;13.65;;;;;;;-6.64;72.71;95521.75;5104735;28;20045;-85
2023/02/08 04:33:24;;;;;;;36.38;14.38;;;;;;;-6.63;72.68;95519.97;5103587;28;20016;-85
2023/02/08 04:35:51;;;;;;;29.33;13.82;;;;;;;-6.60;72.80;95517.06;5104934;28;20083;-87
2023/02/08 04:38:16;;;;;;;40.65;14.38;;;;;;;-6.57;72.75;95525.31;5105128;28;20302;-87
2023/02/08 04:40:41;;;;;;;32.50;14.48;;;;;;;-6.59;72.85;95534.22;5105046;28;20020;-88
2023/02/08 04:43:07;;;;;;;34.13;13.77;;;;;;;-6.53;72.91;95536.19;5104843;28;20043;-87
2023/02/08 04:45:32;;;;;;;33.78;14.07;;;;;;;-6.57;73.01;95527.94;5104968;28;20120;-88
2023/02/08 04:48:00;;;;;;;36.78;15.27;;;;;;;-6.63;73.15;95525.16;5103838;28;20206;-88
2023/02/08 04:50:25;;;;;;;37.78;15.48;;;;;;;-6.59;73.00;95523.84;5104027;28;20051;-89
2023/02/08 04:52:51;;;;;;;33.13;14.48;;;;;;;-6.55;73.12;95525.16;5105156;28;20027;-89
2023/02/08 04:55:16;;;;;;;30.35;13.77;;;;;;;-6.60;73.19;95523.06;5105268;28;20042;-89
2023/02/08 04:57:42;;;;;;;33.72;13.65;;;;;;;-6.54;72.98;95526.78;5104766;28;20040;-84
2023/02/08 05:00:08;;;;;;;30.13;13.65;;;;;;;-6.59;72.85;95537.66;5104529;28;20025;-84
2023/02/08 05:02:33;;;;;;;33.10;12.82;;;;;;;-6.57;72.57;95540.06;5104233;28;20050;-84
2023/02/08 05:04:59;;;;;;;28.00;11.93;;;;;;;-6.62;72.69;95552.72;5104397;28;20024;-84
2023/02/08 05:07:24;;;;;;;38.40;14.45;;;;;;;-6.68;72.53;95567.97;5104204;28;20027;-84
2023/02/08 05:09:49;;;;;;;35.67;13.15;;;;;;;-6.61;72.46;95573.31;5102806;28;20028;-85
2023/02/08 05:12:15;;;;;;;31.88;13.68;;;;;;;-6.64;72.66;95575.44;5104023;28;20031;-85
2023/02/08 05:14:41;;;;;;;27.65;12.32;;;;;;;-6.63;72.35;95566.66;5103185;28;20236;-85
2023/02/08 05:17:06;;;;;;;29.17;13.00;;;;;;;-6.59;72.11;95581.75;5104381;28;20019;-85
2023/02/08 05:19:32;;;;;;;32.92;13.63;;;;;;;-6.54;72.29;95583.84;5104327;28;20249;-83
2023/02/08 05:21:58;;;;;;;32.70;13.68;;;;;;;-6.45;72.16;95580.28;5104248;28;20027;-85
2023/02/08 05:24:23;;;;;;;34.60;13.63;;;;;;;-6.40;72.07;95587.56;5103837;28;20023;-83
2023/02/08 05:26:49;;;;;;;38.63;13.95;;;;;;;-6.50;71.26;95580.75;5103925;28;20024;-83
2023/02/08 05:29:14;;;;;;;31.35;13.05;;;;;;;-6.42;71.27;95584.31;5103246;28;20019;-83
2023/02/08 05:31:40;;;;;;;37.17;15.35;;;;;;;-6.36;71.66;95587.06;5103716;28;20039;-84
2023/02/08 05:34:05;;;;;;;36.60;13.48;;;;;;;-6.27;71.47;95586.06;5103652;28;20106;-84
2023/02/08 05:36:31;;;;;;;33.20;13.80;;;;;;;-6.21;71.16;95588.97;5103896;28;20019;-91
2023/02/08 05:38:56;;;;;;;28.08;12.52;;;;;;;-6.20;70.82;95590.59;5104654;28;20091;-90
2023/02/08 05:41:22;;;;;;;47.85;15.25;;;;;;;-6.20;70.49;95596.59;5104544;28;20028;-90
2023/02/08 05:43:47;;;;;;;27.50;11.95;;;;;;;-6.20;70.33;95595.78;5104317;28;20230;-89
2023/02/08 05:46:13;;;;;;;29.55;12.45;;;;;;;-6.20;70.11;95596.59;5104299;28;20040;-91
2023/02/08 05:48:39;;;;;;;41.13;13.27;;;;;;;-6.16;69.82;95590.09;5103647;28;20047;-91
2023/02/08 05:51:04;;;;;;;32.65;13.75;;;;;;;-6.22;69.96;95598.53;5103886;28;20043;-90
2023/02/08 05:53:30;;;;;;;30.88;12.05;;;;;;;-6.16;70.02;95597.06;5103929;28;20032;-89
2023/02/08 05:55:56;;;;;;;31.08;12.88;;;;;;;-6.15;70.03;95602.06;5103440;28;20106;-87
2023/02/08 05:58:22;;;;;;;42.00;15.68;;;;;;;-6.09;70.07;95611.00;5101833;28;20024;-88
2023/02/08 06:00:48;;;;;;;32.83;14.10;;;;;;;-6.02;69.87;95606.78;5103001;28;20035;-86
2023/02/08 06:03:13;;;;;;;30.33;13.15;;;;;;;-5.93;69.97;95608.31;5103186;28;20226;-87
2023/02/08 06:05:39;;;;;;;34.88;14.05;;;;;;;-5.83;69.43;95608.13;5103261;28;20322;-86
2023/02/08 06:08:05;;;;;;;28.05;13.20;;;;;;;-5.76;69.22;95608.25;5103980;28;20024;-86
2023/02/08 06:10:30;;;;;;;28.13;12.85;;;;;;;-5.73;69.43;95598.34;5103110;28;20084;-85
2023/02/08 06:12:56;;;;;;;28.95;14.32;;;;;;;-5.61;68.89;95603.97;5102962;28;20024;-85
2023/02/08 06:15:21;;;;;;;31.40;14.15;;;;;;;-5.58;67.77;95600.22;5102692;28;20024;-85
2023/02/08 06:17:47;;;;;;;34.53;14.43;;;;;;;-5.58;67.39;95606.22;5101815;28;20039;-86
2023/02/08 06:20:12;;;;;;;33.47;14.65;;;;;;;-5.55;68.25;95605.91;5103387;28;20368;-87
2023/02/08 06:22:38;;;;;;;29.50;14.20;;;;;;;-5.47;68.01;95603.25;5103651;28;20020;-88
2023/02/08 06:25:04;;;;;;;42.70;16.88;;;;;;;-5.46;67.68;95609.25;5102081;28;20020;-87
2023/02/08 06:27:29;;;;;;;33.97;13.60;;;;;;;-5.41;67.34;95608.75;5101767;28;20032;-87
2023/02/08 06:29:55;;;;;;;35.97;14.35;;;;;;;-5.39;66.48;95607.63;5103416;28;20028;-87
2023/02/08 06:32:20;;;;;;;31.13;13.80;;;;;;;-5.35;66.95;95608.06;5104109;28;20042;-91
2023/02/08 06:34:49;;;;;;;29.10;12.93;;;;;;;-5.37;66.31;95603.06;5106103;28;20214;-90
2023/02/08 06:37:15;;;;;;;28.20;13.13;;;;;;;-5.34;65.58;95612.28;5105602;28;20095;-92
2023/02/08 06:39:40;;;;;;;26.77;12.40;;;;;;;-5.34;64.64;95612.28;5101565;28;20020;-85
2023/02/08 06:42:06;;;;;;;25.02;11.90;;;;;;;-5.32;64.45;95607.72;5104333;28;20123;-85
2023/02/08 06:44:32;;;;;;;28.88;11.82;;;;;;;-5.33;64.33;95619.91;5107268;28;20024;-85
2023/02/08 06:46:57;;;;;;;28.08;12.85;;;;;;;-5.32;64.37;95616.34;5105402;28;20253;-88
2023/02/08 06:49:22;;;;;;;34.95;15.00;;;;;;;-5.31;64.91;95619.72;5107119;28;20028;-81
2023/02/08 06:51:48;;;;;;;32.35;15.13;;;;;;;-5.30;64.63;95627.38;5107168;28;20061;-81
2023/02/08 06:54:14;;;;;;;34.50;14.77;;;;;;;-5.24;64.74;95626.69;5107200;28;20036;-81
2023/02/08 06:56:40;;;;;;;37.88;16.10;;;;;;;-5.22;64.93;95631.72;5107609;28;20047;-84
2023/02/08 06:59:05;;;;;;;32.70;14.18;;;;;;;-5.23;64.87;95624.91;5106891;28;20024;-83
2023/02/08 07:01:30;;;;;;;36.45;15.68;;;;;;;-5.23;64.77;95624.91;5108485;28;20073;-84
2023/02/08 07:03:56;;;;;;;33.47;14.85;;;;;;;-5.23;64.34;95632.72;5105707;28;20028;-84
2023/02/08 07:06:21;;;;;;;37.42;14.57;;;;;;;-5.16;64.32;95633.63;5106886;28;20028;-84
2023/02/08 07:08:47;;;;;;;32.65;14.57;;;;;;;-5.11;64.15;95633.94;5106906;28;20310;-87
2023/02/08 07:11:16;;;;;;;54.88;20.20;;;;;;;-5.09;64.39;95626.78;5105696;28;20024;-85
2023/02/08 07:13:41;;;;;;;47.20;18.20;;;;;;;-4.99;63.11;95623.13;5106928;28;20226;-85
2023/02/08 07:16:08;;;;;;;50.70;17.35;;;;;;;-4.95;63.29;95633.00;5106882;28;20031;-83
2023/02/08 07:18:35;;;;;;;44.92;17.38;;;;;;;-4.93;63.54;95641.44;5105523;28;20039;-83
2023/02/08 07:21:01;;;;;;;40.47;16.23;;;;;;;-4.93;63.26;95645.84;5106556;28;20035;-84
2023/02/08 07:23:26;;;;;;;36.17;15.68;;;;;;;-4.94;63.17;95654.63;5106510;28;20012;-84
2023/02/08 07:25:57;;;;;;;37.00;15.02;;;;;;;-4.88;63.54;95651.34;5106435;28;20314;-83
2023/02/08 07:28:22;;;;;;;37.05;15.77;;;;;;;-4.83;63.00;95656.81;5106408;28;20047;-84
2023/02/08 07:30:48;;;;;;;38.53;15.02;;;;;;;-4.82;62.21;95653.25;5106183;28;20020;-84
2023/02/08 07:33:13;;;;;;;47.55;17.17;;;;;;;-4.93;62.34;95667.44;5105160;28;20230;-84
2023/02/08 07:35:38;;;;;;;38.97;15.80;;;;;;;-5.03;63.30;95669.47;5106555;28;20062;-83
2023/02/08 07:38:04;;;;;;;30.88;13.90;;;;;;;-4.92;62.33;95673.47;5106077;28;20015;-80
2023/02/08 07:40:30;;;;;;;41.83;16.30;;;;;;;-4.92;62.66;95666.47;5106069;28;20034;-81
2023/02/08 07:42:56;;;;;;;48.47;19.13;;;;;;;-4.84;63.90;95673.44;5106003;28;20020;-82
2023/02/08 07:45:22;;;;;;;43.53;17.70;;;;;;;-4.79;62.75;95662.50;5105613;28;20020;-81
2023/02/08 07:47:47;;;;;;;39.20;17.33;;;;;;;-4.76;62.66;95670.78;5105939;28;20337;-83
2023/02/08 07:50:15;;;;;;;38.53;17.83;;;;;;;-4.57;62.04;95671.28;5106025;28;20031;-83
2023/02/08 07:52:42;;;;;;;38.92;15.35;;;;;;;-4.45;61.00;95675.91;5104416;28;20038;-82
2023/02/08 07:55:10;;;;;;;42.03;17.10;;;;;;;-4.36;60.57;95675.84;5106188;28;20372;-87
2023/02/08 07:57:36;;;;;;;44.83;15.82;;;;;;;-4.26;61.36;95674.59;5106758;28;20027;-78
2023/02/08 08:00:02;;;;;;;42.63;17.88;;;;;;;-4.13;60.89;95673.19;5106090;28;20012;-80
2023/02/08 08:02:27;;;;;;;37.40;15.65;;;;;;;-4.03;59.21;95673.75;5105851;28;20268;-79
2023/02/08 08:04:53;;;;;;;36.42;16.90;;;;;;;-4.06;58.96;95674.91;5105887;28;20012;-83
2023/02/08 08:07:18;;;;;;;39.13;16.52;;;;;;;-4.08;59.02;95663.88;5104616;28;20051;-79
2023/02/08 08:09:44;;;;;;;35.53;14.77;;;;;;;-4.05;59.43;95668.75;5105846;28;20195;-80
2023/02/08 08:12:09;;;;;;;41.22;16.55;;;;;;;-3.97;59.57;95672.22;5105860;28;20241;-77
2023/02/08 08:14:35;;;;;;;34.13;16.48;;;;;;;-4.01;58.87;95668.38;5105533;28;20036;-80
2023/02/08 08:17:00;;;;;;;32.90;15.90;;;;;;;-3.99;59.45;95658.56;5105642;28;20043;-79
2023/02/08 08:19:26;;;;;;;33.83;14.98;;;;;;;-3.92;58.50;95659.50;5105731;28;20020;-79
2023/02/08 08:21:51;;;;;;;41.55;17.80;;;;;;;-4.11;58.99;95663.41;5105496;28;20024;-77
2023/02/08 08:24:16;;;;;;;43.42;16.08;;;;;;;-4.00;59.34;95662.97;5105455;28;20020;-79
2023/02/08 08:26:42;;;;;;;44.17;17.73;;;;;;;-3.84;59.63;95662.81;5105286;28;20023;-79
2023/02/08 08:29:07;;;;;;;33.22;16.90;;;;;;;-3.68;58.01;95658.44;5105395;28;20024;-84
2023/02/08 08:31:33;;;;;;;33.88;16.42;;;;;;;-3.58;57.71;95658.13;5105117;28;20020;-79
2023/02/08 08:33:58;;;;;;;37.53;17.25;;;;;;;-3.50;57.34;95660.66;5105398;28;20019;-82
2023/02/08 08:36:24;;;;;;;43.33;16.08;;;;;;;-3.36;57.36;95662.44;5105297;28;20354;-83
2023/02/08 08:38:50;;;;;;;41.28;16.42;;;;;;;-3.24;57.72;95662.78;5105059;28;20031;-80
2023/02/08 08:41:21;;;;;;;47.55;17.38;;;;;;;-3.11;56.65;95656.94;5103794;28;20023;-82
2023/02/08 08:43:47;;;;;;;36.90;16.52;;;;;;;-3.09;57.31;95655.75;5105145;28;20024;-79
2023/02/08 08:46:13;;;;;;;45.22;18.13;;;;;;;-2.96;57.86;95667.31;5105083;28;20345;-80
2023/02/08 08:48:39;;;;;;;35.65;16.73;;;;;;;-2.76;57.16;95670.16;5105089;28;20084;-82
2023/02/08 08:51:06;;;;;;;37.63;15.70;;;;;;;-2.66;56.73;95666.22;5105067;28;20334;-81
2023/02/08 08:53:31;;;;;;;41.28;15.93;;;;;;;-2.58;56.55;95665.31;5103362;28;20180;-80
2023/02/08 08:55:57;;;;;;;34.97;15.77;;;;;;;-2.42;56.33;95670.28;5104644;28;20223;-81
2023/02/08 08:58:22;;;;;;;36.17;15.70;;;;;;;-2.25;56.35;95676.03;5104766;28;20094;-83
2023/02/08 09:00:48;;;;;;;36.92;15.52;;;;;;;-2.11;54.38;95674.34;5104607;28;20097;-81
2023/02/08 09:03:13;;;;;;;37.72;11.32;;;;;;;-2.02;53.47;95680.25;5104747;28;20095;-82
2023/02/08 09:05:39;;;;;;;24.42;12.10;;;;;;;-1.95;53.84;95681.13;5103851;28;20091;-82
2023/02/08 09:08:05;;;;;;;27.75;11.82;;;;;;;-1.84;53.25;95679.78;5104543;28;20020;-82
2023/02/08 09:10:30;;;;;;;32.20;13.40;;;;;;;-1.74;52.93;95675.00;5104374;28;20035;-81
2023/02/08 09:12:57;;;;;;;34.00;14.05;;;;;;;-1.58;52.74;95688.81;5104379;28;20304;-80
2023/02/08 09:15:22;;;;;;;37.05;13.98;;;;;;;-1.49;52.95;95693.66;5104169;28;20322;-76
2023/02/08 09:17:48;;;;;;;31.45;13.77;;;;;;;-1.36;51.66;95692.13;5104219;28;20035;-82
2023/02/08 09:20:13;;;;;;;32.13;15.00;;;;;;;-1.32;51.98;95690.72;5104184;28;20048;-81
2023/02/08 09:22:39;;;;;;;35.03;15.13;;;;;;;-1.16;52.40;95703.53;5104554;28;20070;-84
2023/02/08 09:25:06;;;;;;;33.10;14.38;;;;;;;-1.01;52.04;95696.31;5103253;28;20055;-85
2023/02/08 09:27:31;;;;;;;36.88;16.45;;;;;;;-0.87;51.10;95699.00;5103882;28;20072;-87
2023/02/08 09:29:57;;;;;;;37.22;16.55;;;;;;;-0.74;51.94;95706.88;5104125;28;20028;-87
2023/02/08 09:32:22;;;;;;;39.58;17.45;;;;;;;-0.66;51.93;95698.84;5103835;28;20057;-82
2023/02/08 09:34:48;;;;;;;33.70;16.00;;;;;;;-0.48;50.61;95702.75;5103175;28;20356;-84
2023/02/08 09:37:16;;;;;;;44.35;16.30;;;;;;;-0.42;50.12;95704.56;5104177;28;20023;-85
2023/02/08 09:39:42;;;;;;;49.08;16.73;;;;;;;-0.32;49.56;95694.50;5103998;28;20016;-87
2023/02/08 09:42:46;;;;;;;32.22;13.15;;;;;;;-0.25;49.95;95702.38;5104562;28;20022;-83
2023/02/08 09:45:25;;;;;;;35.95;14.45;;;;;;;-0.17;49.33;95704.00;5103526;28;20063;-80
2023/02/08 09:47:57;;;;;;;31.27;13.93;;;;;;;-0.08;49.23;95702.78;5103942;28;20032;-85
2023/02/08 09:50:28;;;;;;;33.47;15.48;;;;;;;0.01;48.85;95688.47;5104471;28;20023;-79
2023/02/08 09:53:03;;;;;;;36.88;15.60;;;;;;;0.02;48.81;95692.72;5102586;28;20091;-84
2023/02/08 09:55:45;;;;;;;29.65;14.18;;;;;;;0.05;48.81;95683.63;5102676;28;20048;-81
2023/02/08 09:58:38;;;;;;;30.48;14.73;;;;;;;0.12;48.01;95693.13;5103076;28;20024;-81
2023/02/08 10:01:10;;;;;;;28.88;12.55;;;;;;;0.20;48.26;95692.09;5102817;28;20020;-82
2023/02/08 10:03:38;;;;;;;71.57;27.77;;;;;;;0.26;47.57;95683.41;5101908;28;20030;-82
2023/02/08 10:06:10;;;;;;;42.42;18.85;;;;;;;0.31;47.70;95683.63;5103451;28;20068;-81
2023/02/08 10:08:36;;;;;;;;;;;;;;;0.36;47.97;95683.00;5102859;28;20022;-82
2023/02/08 10:11:19;;;;;;;31.00;14.90;;;;;;;0.31;47.65;95690.69;5103239;28;20118;-81
2023/02/08 10:13:53;;;;;;;29.65;12.52;;;;;;;0.29;47.49;95679.59;5103235;28;20038;-82
2023/02/08 10:16:42;;;;;;;25.50;11.98;;;;;;;0.33;46.25;95681.59;5103114;28;20279;-81
2023/02/08 10:19:34;;;;;;;26.70;12.65;;;;;;;0.39;46.45;95685.22;5102097;28;20047;-81
2023/02/08 10:21:59;;;;;;;23.37;12.03;;;;;;;0.33;45.58;95683.41;5081580;28;20103;-81
2023/02/08 10:24:40;;;;;;;25.70;11.35;;;;;;;0.30;46.17;95682.00;5100966;28;20280;-81
2023/02/08 10:27:15;;;;;;;27.63;10.60;;;;;;;0.29;46.00;95682.22;5101702;28;20221;-81
2023/02/08 10:29:47;;;;;;;25.85;11.25;;;;;;;0.32;45.86;95687.03;5101410;28;20024;-81
2023/02/08 10:32:34;;;;;;;23.55;10.95;;;;;;;0.34;45.44;95683.19;5101880;28;20024;-81
2023/02/08 10:35:03;;;;;;;26.67;12.05;;;;;;;0.43;45.68;95686.44;5101845;28;20053;-81
2023/02/08 10:37:33;;;;;;;28.10;12.52;;;;;;;0.50;46.43;95687.22;5103074;28;20218;-81
2023/02/08 10:40:17;;;;;;;29.08;12.13;;;;;;;0.63;46.03;95690.81;5103077;28;20187;-82
2023/02/08 10:42:48;;;;;;;30.13;12.70;;;;;;;0.63;44.93;95681.13;5102809;28;20221;-81
2023/02/08 10:45:49;;;;;;;29.50;12.20;;;;;;;0.58;45.88;95683.56;5102768;28;20042;-81
2023/02/08 10:48:24;;;;;;;22.08;10.82;;;;;;;0.60;45.50;95682.34;5079702;28;20058;-81
2023/02/08 10:50:50;;;;;;;25.08;11.45;;;;;;;0.67;44.56;95684.97;5102787;28;20048;-82
2023/02/08 10:53:18;;;;;;;28.73;11.43;;;;;;;0.72;44.64;95684.34;5102722;28;20012;-81
2023/02/08 10:55:45;;;;;;;24.92;11.93;;;;;;;0.76;44.39;95681.09;5102559;28;20034;-81
2023/02/08 10:58:24;;;;;;;32.33;12.20;;;;;;;0.86;44.44;95682.50;5103022;28;20024;-81
2023/02/08 11:00:52;;;;;;;32.03;14.57;;;;;;;0.99;43.90;95682.44;5102609;28;20377;-81
2023/02/08 11:03:23;;;;;;;22.67;12.07;;;;;;;1.09;43.81;95689.88;5102644;28;20020;-82
2023/02/08 11:05:49;;;;;;;23.08;11.23;;;;;;;1.27;43.66;95679.50;5102641;28;20024;-82
2023/02/08 11:08:18;;;;;;;23.17;11.02;;;;;;;1.40;41.88;95679.44;5102712;28;20016;-82
2023/02/08 11:11:04;;;;;;;26.65;11.75;;;;;;;1.29;41.53;95680.09;5101389;28;20250;-82
2023/02/08 11:13:43;;;;;;;21.67;11.73;;;;;;;1.40;42.89;95682.06;5101566;28;20032;-82
2023/02/08 11:16:12;;;;;;;20.85;10.90;;;;;;;1.54;43.02;95679.34;5102712;28;20113;-82
2023/02/08 11:18:49;;;;;;;23.27;11.40;;;;;;;1.73;42.71;95681.06;5102696;28;20028;-82
2023/02/08 11:21:35;;;;;;;28.15;10.88;;;;;;;1.96;42.58;95677.03;5102437;28;20081;-82
2023/02/08 11:24:21;;;;;;;27.90;11.88;;;;;;;2.10;41.34;95672.50;5102430;28;20081;-82
2023/02/08 11:26:47;;;;;;;23.90;11.73;;;;;;;2.00;40.38;95675.59;5102642;28;20027;-81
2023/02/08 11:29:21;;;;;;;21.35;11.43;;;;;;;1.93;41.66;95674.81;5105626;28;20034;-82
2023/02/08 11:32:12;;;;;;;20.20;9.85;;;;;;;2.03;42.65;95674.34;5106398;28;20020;-82
2023/02/08 11:34:38;;;;;;;21.17;9.73;;;;;;;2.06;43.21;95681.84;5106455;28;20019;-82